createdAt,value
2018-08-22T00:01:01.182Z,17.22
2018-08-22T00:04:17.397Z,17.24
2018-08-22T00:07:34.795Z,17.37
2018-08-22T00:10:38.080Z,17.18
2018-08-22T00:14:02.633Z,17.16
2018-08-22T00:17:32.839Z,17.22
2018-08-22T00:24:24.382Z,17.22
2018-08-22T00:27:38.030Z,17.17
2018-08-22T00:30:49.357Z,17.12
2018-08-22T00:37:50.538Z,17.09
2018-08-22T00:41:08.907Z,17.18
2018-08-22T00:44:33.152Z,17.04
2018-08-22T00:48:00.406Z,17.07
2018-08-22T00:55:00.891Z,16.80
2018-08-22T00:58:10.481Z,16.72
2018-08-22T01:01:19.236Z,16.56
2018-08-22T01:04:46.330Z,16.82
2018-08-22T01:07:59.211Z,16.62
2018-08-22T01:11:32.859Z,16.69
2018-08-22T01:14:47.942Z,16.59
2018-08-22T01:17:53.832Z,16.56
2018-08-22T01:24:26.085Z,16.46
2018-08-22T01:27:42.898Z,16.37
2018-08-22T01:31:03.968Z,16.42
2018-08-22T01:34:14.718Z,16.43
2018-08-22T01:37:26.923Z,16.44
2018-08-22T01:40:43.918Z,16.60
2018-08-22T01:43:59.728Z,16.44
2018-08-22T01:47:30.594Z,16.33
2018-08-22T01:50:50.124Z,16.31
2018-08-22T01:54:04.996Z,16.42
2018-08-22T01:57:24.981Z,16.42
2018-08-22T02:00:44.063Z,16.36
2018-08-22T02:04:01.572Z,16.19
2018-08-22T02:07:21.167Z,16.12
2018-08-22T02:10:45.537Z,16.28
2018-08-22T02:14:02.462Z,16.11
2018-08-22T02:17:18.280Z,16.13
2018-08-22T02:20:27.453Z,15.84
2018-08-22T02:23:46.860Z,15.87
2018-08-22T02:27:01.316Z,15.95
2018-08-22T02:30:19.265Z,16.01
2018-08-22T02:33:42.083Z,15.93
2018-08-22T02:36:59.338Z,15.77
2018-08-22T02:40:17.731Z,15.81
2018-08-22T02:43:38.094Z,15.77
2018-08-22T02:46:59.631Z,15.79
2018-08-22T02:50:16.636Z,15.57
2018-08-22T02:53:35.919Z,15.43
2018-08-22T02:57:04.581Z,15.39
2018-08-22T03:00:31.681Z,15.52
2018-08-22T03:03:46.587Z,15.53
2018-08-22T03:07:12.184Z,15.66
2018-08-22T03:10:35.237Z,15.47
2018-08-22T03:17:18.259Z,16.09
2018-08-22T03:20:32.107Z,16.36
2018-08-22T03:23:48.525Z,15.93
2018-08-22T03:27:20.689Z,15.61
2018-08-22T03:30:37.619Z,15.39
2018-08-22T03:33:58.633Z,15.31
2018-08-22T03:37:36.420Z,15.07
2018-08-22T03:45:27.159Z,15.19
2018-08-22T04:24:29.126Z,14.78
2018-08-22T04:27:48.845Z,14.63
2018-08-22T04:31:12.598Z,14.78
2018-08-22T04:34:53.215Z,14.91
2018-08-22T06:34:14.202Z,16.95
2018-08-22T06:37:46.477Z,16.95
2018-08-22T06:49:05.828Z,17.25
2018-08-22T06:52:35.833Z,17.37
2018-08-22T06:56:04.568Z,17.48
2018-08-22T06:59:30.881Z,17.55
2018-08-22T07:38:55.016Z,19.62
2018-08-22T07:42:11.677Z,19.87
2018-08-22T07:45:46.475Z,20.12
2018-08-22T07:53:28.807Z,20.69
2018-08-22T08:00:24.619Z,21.20
2018-08-22T08:03:52.828Z,21.43
2018-08-22T08:07:13.036Z,21.65
2018-08-22T08:18:05.451Z,22.69
2018-08-22T08:21:24.725Z,23.06
2018-08-22T08:24:37.831Z,23.18
2018-08-22T09:12:01.335Z,25.96
2018-08-22T09:15:05.557Z,26.23
2018-08-22T09:18:09.111Z,26.24
2018-08-22T09:21:29.378Z,26.44
2018-08-22T09:44:04.075Z,27.60
2018-08-22T09:47:07.321Z,27.72
2018-08-22T09:50:13.514Z,27.82
2018-08-22T09:53:18.312Z,27.84
2018-08-22T09:56:21.478Z,27.90
2018-08-22T09:59:24.979Z,28.34
2018-08-22T10:02:31.241Z,27.83
2018-08-22T10:05:39.588Z,28.09
2018-08-22T10:08:46.378Z,28.52
2018-08-22T10:11:52.380Z,28.55
2018-08-22T10:14:58.445Z,28.78
2018-08-22T10:18:04.155Z,29.13
2018-08-22T10:21:08.826Z,29.09
2018-08-22T10:24:12.690Z,29.31
2018-08-22T10:27:19.499Z,29.08
2018-08-22T10:30:24.957Z,29.45
2018-08-22T10:33:29.495Z,29.52
2018-08-22T10:36:32.854Z,29.58
2018-08-22T10:39:36.113Z,29.54
2018-08-22T10:42:39.333Z,29.48
2018-08-22T10:45:42.481Z,29.77
2018-08-22T10:48:45.706Z,29.77
2018-08-22T10:51:48.975Z,29.73
2018-08-22T10:54:52.251Z,29.71
2018-08-22T10:57:55.540Z,29.86
2018-08-22T11:00:58.816Z,29.61
2018-08-22T11:04:02.000Z,29.49
2018-08-22T11:07:05.253Z,29.85
2018-08-22T11:10:08.548Z,30.10
2018-08-22T11:13:12.082Z,30.08
2018-08-22T11:16:15.354Z,30.13
2018-08-22T11:19:19.624Z,30.18
2018-08-22T11:22:34.152Z,30.03
2018-08-22T11:25:49.158Z,30.27
2018-08-22T11:29:03.980Z,30.67
2018-08-22T11:32:18.685Z,30.34
2018-08-22T11:35:21.004Z,30.32
2018-08-22T11:38:24.311Z,30.49
2018-08-22T11:41:27.561Z,31.00
2018-08-22T11:44:30.948Z,30.63
2018-08-22T11:47:34.392Z,30.77
2018-08-22T11:50:37.804Z,31.04
2018-08-22T11:53:41.098Z,31.74
2018-08-22T11:56:44.473Z,32.14
2018-08-22T11:59:47.880Z,31.29
2018-08-22T12:02:51.289Z,31.65
2018-08-22T12:05:54.742Z,31.67
2018-08-22T12:09:01.134Z,32.07
2018-08-22T12:12:04.432Z,31.82
2018-08-22T12:15:07.749Z,31.65
2018-08-22T12:18:11.075Z,32.05
2018-08-22T12:21:15.247Z,32.42
2018-08-22T12:24:19.395Z,32.17
2018-08-22T12:27:22.771Z,32.07
2018-08-22T12:30:26.094Z,32.00
2018-08-22T12:33:29.479Z,31.68
2018-08-22T12:36:32.777Z,31.93
2018-08-22T12:39:36.842Z,32.08
2018-08-22T12:42:40.204Z,32.39
2018-08-22T12:45:44.421Z,32.29
2018-08-22T12:48:47.665Z,32.65
2018-08-22T12:51:50.949Z,32.43
2018-08-22T12:54:54.286Z,32.41
2018-08-22T12:57:57.561Z,32.03
2018-08-22T13:01:00.886Z,32.46
2018-08-22T13:04:04.408Z,31.92
2018-08-22T13:07:07.685Z,32.29
2018-08-22T13:10:11.079Z,32.37
2018-08-22T13:13:14.414Z,32.00
2018-08-22T13:16:17.900Z,32.47
2018-08-22T13:19:21.418Z,32.17
2018-08-22T13:22:25.623Z,32.15
2018-08-22T13:25:29.141Z,31.99
2018-08-22T13:28:33.013Z,31.93
2018-08-22T13:31:36.362Z,32.31
2018-08-22T13:34:39.822Z,31.87
2018-08-22T13:37:43.119Z,31.97
2018-08-22T13:40:46.423Z,32.10
2018-08-22T13:43:49.715Z,32.44
2018-08-22T13:46:53.116Z,32.31
2018-08-22T13:49:56.457Z,31.91
2018-08-22T13:52:59.888Z,32.41
2018-08-22T13:56:03.269Z,31.64
2018-08-22T13:59:06.497Z,31.68
2018-08-22T14:02:09.800Z,32.11
2018-08-22T14:05:13.953Z,32.23
2018-08-22T14:08:17.327Z,32.22
2018-08-22T14:11:20.616Z,31.82
2018-08-22T14:14:24.024Z,31.96
2018-08-22T14:17:27.624Z,32.27
2018-08-22T14:20:31.053Z,32.01
2018-08-22T14:23:34.570Z,31.42
2018-08-22T14:26:38.364Z,32.02
2018-08-22T14:29:42.116Z,31.82
2018-08-22T14:32:45.654Z,31.92
2018-08-22T14:35:49.056Z,31.42
2018-08-22T14:38:52.556Z,31.15
2018-08-22T14:41:55.956Z,31.45
2018-08-22T14:44:59.428Z,31.34
2018-08-22T14:48:02.869Z,31.48
2018-08-22T14:51:06.968Z,31.23
2018-08-22T14:54:10.464Z,30.84
2018-08-22T14:57:13.833Z,30.69
2018-08-22T15:00:17.408Z,30.75
2018-08-22T15:03:21.188Z,30.81
2018-08-22T15:06:25.233Z,30.82
2018-08-22T15:09:28.915Z,30.92
2018-08-22T15:12:32.314Z,31.01
2018-08-22T15:15:35.743Z,31.18
2018-08-22T15:18:39.326Z,30.84
2018-08-22T15:21:42.819Z,30.87
2018-08-22T15:24:46.420Z,30.57
2018-08-22T15:27:50.282Z,30.70
2018-08-22T15:30:53.782Z,30.84
2018-08-22T15:33:57.281Z,30.99
2018-08-22T15:37:00.958Z,30.42
2018-08-22T15:40:04.455Z,30.67
2018-08-22T15:43:09.169Z,30.45
2018-08-22T15:46:12.716Z,30.66
2018-08-22T15:49:16.393Z,30.54
2018-08-22T15:52:22.049Z,30.31
2018-08-22T15:55:25.709Z,30.55
2018-08-22T15:58:29.268Z,30.55
2018-08-22T16:01:33.383Z,30.55
2018-08-22T16:04:52.891Z,30.60
2018-08-22T16:07:56.429Z,30.22
2018-08-22T16:11:04.528Z,29.85
2018-08-22T16:14:08.364Z,29.71
2018-08-22T16:17:12.369Z,30.08
2018-08-22T16:20:16.939Z,30.20
2018-08-22T16:23:23.102Z,30.14
2018-08-22T16:26:27.732Z,29.25
2018-08-22T16:29:33.136Z,29.82
2018-08-22T16:32:36.927Z,29.94
2018-08-22T16:35:43.615Z,30.06
2018-08-22T16:38:48.011Z,29.90
2018-08-22T16:41:51.789Z,29.79
2018-08-22T16:44:55.752Z,29.78
2018-08-22T16:47:59.227Z,29.71
2018-08-22T16:51:03.538Z,29.70
2018-08-22T16:54:09.731Z,29.34
2018-08-22T16:57:13.199Z,28.85
2018-08-22T17:00:16.911Z,29.00
2018-08-22T17:03:20.466Z,29.13
2018-08-22T17:06:27.178Z,28.86
2018-08-22T17:09:30.537Z,28.99
2018-08-22T17:12:40.120Z,28.97
2018-08-22T17:15:44.093Z,28.75
2018-08-22T17:18:47.884Z,28.34
2018-08-22T17:21:54.192Z,28.19
2018-08-22T17:24:59.487Z,27.96
2018-08-22T17:28:05.042Z,28.09
2018-08-22T17:31:13.876Z,28.21
2018-08-22T17:34:17.644Z,28.18
2018-08-22T17:37:25.049Z,28.21
2018-08-22T17:40:30.007Z,28.11
2018-08-22T17:44:08.463Z,28.07
2018-08-22T17:47:20.589Z,27.72
2018-08-22T17:50:24.313Z,27.59
2018-08-22T17:53:28.463Z,27.72
2018-08-22T17:56:33.650Z,27.57
2018-08-22T17:59:38.053Z,27.44
2018-08-22T18:02:41.902Z,27.32
2018-08-22T18:05:45.546Z,27.18
2018-08-22T18:08:50.439Z,27.03
2018-08-22T18:11:54.443Z,26.92
2018-08-22T18:15:01.244Z,26.76
2018-08-22T18:18:06.883Z,26.69
2018-08-22T18:21:10.559Z,26.67
2018-08-22T18:24:15.325Z,26.55
2018-08-22T18:27:19.015Z,26.45
2018-08-22T18:30:22.758Z,26.37
2018-08-22T18:33:27.146Z,26.35
2018-08-22T18:36:31.947Z,26.26
2018-08-22T18:39:35.941Z,26.12
2018-08-22T18:42:41.282Z,26.02
2018-08-22T18:45:58.125Z,25.90
2018-08-22T18:49:06.546Z,25.82
2018-08-22T18:52:12.122Z,25.82
2018-08-22T18:55:29.057Z,25.72
2018-08-22T18:58:35.311Z,25.61
2018-08-22T19:01:41.676Z,25.62
2018-08-22T19:04:45.746Z,25.58
2018-08-22T19:08:04.064Z,25.48
2018-08-22T19:11:08.564Z,25.35
2018-08-22T19:14:20.839Z,25.31
2018-08-22T19:17:25.538Z,25.24
2018-08-22T19:20:29.405Z,25.22
2018-08-22T19:23:33.179Z,24.96
2018-08-22T19:26:36.933Z,24.93
2018-08-22T19:29:40.657Z,25.00
2018-08-22T19:32:44.429Z,24.88
2018-08-22T19:35:48.282Z,24.82
2018-08-22T19:38:51.863Z,24.76
2018-08-22T19:41:55.398Z,24.56
2018-08-22T19:44:59.227Z,24.44
2018-08-22T19:48:03.166Z,24.26
2018-08-22T19:51:06.738Z,24.05
2018-08-22T19:54:10.537Z,24.07
2018-08-22T19:57:14.296Z,24.07
2018-08-22T20:00:18.281Z,24.05
2018-08-22T20:03:25.937Z,23.98
2018-08-22T20:06:31.284Z,23.99
2018-08-22T20:09:38.258Z,23.87
2018-08-22T20:12:44.946Z,23.80
2018-08-22T20:15:49.083Z,23.87
2018-08-22T20:18:56.845Z,23.88
2018-08-22T20:22:00.488Z,23.72
2018-08-22T20:25:04.218Z,23.72
2018-08-22T20:28:07.758Z,23.74
2018-08-22T20:31:13.483Z,23.67
2018-08-22T20:34:19.436Z,23.62
2018-08-22T20:37:22.834Z,23.60
2018-08-22T20:40:26.375Z,23.54
2018-08-22T20:43:29.963Z,23.52
2018-08-22T20:46:33.428Z,23.34
2018-08-22T20:49:37.001Z,23.35
2018-08-22T20:52:40.946Z,23.30
2018-08-22T20:55:46.267Z,23.32
2018-08-22T20:58:51.525Z,23.36
2018-08-22T21:02:02.385Z,23.24
2018-08-22T21:05:10.060Z,23.24
2018-08-22T21:08:14.793Z,23.08
2018-08-22T21:14:30.534Z,23.07
2018-08-22T21:17:36.433Z,23.04
2018-08-22T21:20:42.458Z,23.08
2018-08-22T21:23:50.258Z,22.91
2018-08-22T21:26:55.973Z,22.83
2018-08-22T21:30:01.074Z,22.80
2018-08-22T21:33:08.438Z,22.73
2018-08-22T21:36:16.038Z,22.70
2018-08-22T21:39:26.448Z,22.63
2018-08-22T21:57:26.937Z,22.57
2018-08-22T22:00:39.768Z,22.45
2018-08-22T22:03:43.278Z,22.53
2018-08-22T22:06:46.693Z,22.41
2018-08-22T22:09:51.868Z,22.37
2018-08-22T22:12:55.918Z,22.30
2018-08-22T22:16:02.630Z,22.25
2018-08-22T22:19:06.302Z,22.18
2018-08-22T22:22:09.705Z,22.30
2018-08-22T22:25:15.260Z,22.20
2018-08-22T22:28:20.424Z,22.13
2018-08-22T22:31:24.520Z,22.09
2018-08-22T22:34:27.895Z,22.04
2018-08-22T22:37:31.352Z,21.89
2018-08-22T22:40:34.958Z,22.04
2018-08-22T22:43:38.372Z,21.97
2018-08-22T22:46:41.752Z,21.97
2018-08-22T22:49:45.071Z,22.01
2018-08-22T22:52:48.570Z,21.86
2018-08-22T22:55:52.176Z,21.66
2018-08-22T22:58:55.621Z,21.63
2018-08-22T23:01:59.051Z,21.77
2018-08-22T23:05:02.774Z,21.65
2018-08-22T23:08:06.029Z,21.77
2018-08-22T23:11:09.384Z,21.68
2018-08-22T23:14:12.886Z,21.62
2018-08-22T23:17:16.212Z,21.55
2018-08-22T23:20:28.137Z,21.55
2018-08-22T23:23:33.840Z,21.66
2018-08-22T23:26:37.036Z,21.70
2018-08-22T23:29:40.355Z,21.42
2018-08-22T23:32:43.664Z,21.36
2018-08-22T23:35:46.961Z,21.24
2018-08-22T23:38:50.271Z,21.42
2018-08-22T23:41:53.500Z,21.34
2018-08-22T23:45:01.005Z,21.29
2018-08-22T23:48:04.752Z,21.25
2018-08-22T23:51:10.846Z,21.11
2018-08-22T23:54:14.857Z,21.11
2018-08-22T23:57:21.128Z,21.01
